Etusivu
METAR-TAF:

METAR-TAF

Lentoasemat :

Jedda, Saudi-Arabia

Kuningas Abdilazizin kansainvälinen lentoasema

Leveyspiiri: 21-42N, Pituuspiiri: 039-11E, korkeus merenpinnasta: 15 m

Tämänhetkinen sää

Tämä raportti tehtiin 31 minuuttia sitten, kello 11.00 UTC
Tuuli 4 kn luoteesta
Lämpötila 31°C
Kosteus 22%
Ilmanpaine 1016 hPa
Näkyvyys: 7000 m
selkeää

METAR: OEJN 111100Z 32004KT 7000 SKC 31/07 Q1016 NOSIG

Aika: 14:31 (11:31 UTC)

Sääennuste

Tämä raportti tehtiin 7 tuntia ja 31 minuuttia sitten, kello 04.00 UTC
Ennuste voimassa 11. päivästä klo 06 UTC - 12. päivään klo 12 UTC
Tuuli 8 kn idästä
Näkyvyys: 7000 m
Tulossa
11. päivästä klo 10 UTC - 11. päivään klo 12 UTC
Tuuli 6 kn lounaasta puuskistuen 16 kn:hen

TAF: OEJN 110400Z 1106/1212 08008KT 7000 NSC BECMG 1110/1112 22006G16KT

Säähavainnot ja -ennusteet yli 4000 lentoasemalta (METAR- ja TAF-raportit).

Käytössä olevat sääasemat on merkitty karttaan keltaisilla ja punaisilla pisteillä.

Aseta hiiri pisteen päälle nähdäksesi sääaseman nimen.

Klikkaa sitten nähdäksesi säähavainnot ja -ennusteet.

Kartan vaihtaminen: klikkaa mustalla rastilla varustettuja vihreitä pisteitä, niin voit zoomata sisään; viivalla varustettua vihreää pistettä, niin voit zoomata ulos tai vihreitä nuolia, niin pääset viereisille kartoille.


METAR-TAF: